createdAt,value
2019-04-24T00:01:54.183Z,16.63
2019-04-24T00:04:48.614Z,17.80
2019-04-24T00:07:19.607Z,18.07
2019-04-24T00:10:02.708Z,16.87
2019-04-24T00:12:58.779Z,18.97
2019-04-24T00:15:49.703Z,19.43
2019-04-24T00:21:05.542Z,19.77
2019-04-24T00:23:52.080Z,18.60
2019-04-24T00:26:07.913Z,19.00
2019-04-24T00:28:51.262Z,18.50
2019-04-24T00:34:04.235Z,17.30
2019-04-24T00:36:46.565Z,19.50
2019-04-24T00:39:14.165Z,18.80
2019-04-24T00:44:14.433Z,18.37
2019-04-24T00:47:00.839Z,18.47
2019-04-24T00:49:28.775Z,19.10
2019-04-24T00:54:24.452Z,20.00
2019-04-24T00:57:12.238Z,20.03
2019-04-24T01:05:41.555Z,20.17
2019-04-24T01:08:10.116Z,19.13
2019-04-24T01:10:59.460Z,18.27
2019-04-24T01:13:26.517Z,19.70
2019-04-24T01:16:16.357Z,19.73
2019-04-24T01:21:18.899Z,20.67
2019-04-24T01:23:43.367Z,19.20
2019-04-24T01:31:31.706Z,18.87
2019-04-24T01:37:33.476Z,18.23
2019-04-24T01:40:04.722Z,20.20
2019-04-24T01:43:05.376Z,18.63
2019-04-24T01:50:23.495Z,19.50
2019-04-24T01:52:54.327Z,20.43
2019-04-24T01:55:31.896Z,20.20
2019-04-24T01:58:19.425Z,19.67
2019-04-24T02:00:54.936Z,19.93
2019-04-24T02:03:13.513Z,18.80
2019-04-24T02:05:43.103Z,19.30
2019-04-24T02:08:35.988Z,19.33
2019-04-24T02:11:39.140Z,21.27
2019-04-24T02:14:09.278Z,21.30
2019-04-24T02:19:16.729Z,18.30
2019-04-24T02:21:42.357Z,20.87
2019-04-24T02:27:02.889Z,20.67
2019-04-24T02:29:29.668Z,20.20
2019-04-24T02:32:16.615Z,18.20
2019-04-24T02:34:55.112Z,19.40
2019-04-24T02:48:53.178Z,21.23
2019-04-24T02:51:09.739Z,20.57
2019-04-24T02:56:31.320Z,20.80
2019-04-24T02:58:57.118Z,20.37
2019-04-24T03:01:26.285Z,21.53
2019-04-24T03:04:00.956Z,18.87
2019-04-24T03:06:40.628Z,20.90
2019-04-24T03:09:10.867Z,19.77
2019-04-24T03:12:11.745Z,19.77
2019-04-24T03:14:39.909Z,20.37
2019-04-24T03:19:49.475Z,19.13
2019-04-24T03:30:24.306Z,19.57
2019-04-24T03:33:07.204Z,19.87
2019-04-24T03:38:30.917Z,20.20
2019-04-24T03:41:28.577Z,19.83
2019-04-24T03:51:50.768Z,17.87
2019-04-24T03:53:59.418Z,18.83
2019-04-24T03:56:30.608Z,18.83
2019-04-24T04:07:49.827Z,19.57
2019-04-24T04:10:10.957Z,20.30
2019-04-24T04:26:12.362Z,19.23
2019-04-24T04:29:14.290Z,19.87
2019-04-24T04:31:42.202Z,18.00
2019-04-24T04:34:33.385Z,20.10
2019-04-24T04:37:01.088Z,18.90
2019-04-24T04:39:43.013Z,17.67
2019-04-24T04:42:51.966Z,18.77
2019-04-24T04:47:41.963Z,18.60
2019-04-24T04:56:13.657Z,19.07
2019-04-24T05:07:22.640Z,18.40
2019-04-24T05:17:51.977Z,18.97
2019-04-24T05:19:43.976Z,18.10
2019-04-24T05:25:21.992Z,19.87
2019-04-24T05:27:45.175Z,23.93
2019-04-24T05:30:24.991Z,19.87
2019-04-24T05:36:25.883Z,18.80
2019-04-24T05:46:44.528Z,21.30
2019-04-24T05:49:17.597Z,22.23
2019-04-24T05:51:54.358Z,22.77
2019-04-24T05:54:48.001Z,20.40
2019-04-24T05:58:01.562Z,19.83
2019-04-24T06:00:23.603Z,21.60
2019-04-24T06:02:50.842Z,21.13
2019-04-24T06:05:25.676Z,20.63
2019-04-24T06:08:12.128Z,22.43
2019-04-24T06:10:54.626Z,20.67
2019-04-24T06:16:35.034Z,22.63
2019-04-24T06:19:26.097Z,22.53
2019-04-24T06:21:57.089Z,22.77
2019-04-24T06:24:30.132Z,21.57
2019-04-24T06:45:51.180Z,22.03
2019-04-24T06:48:19.716Z,20.77
2019-04-24T06:53:25.934Z,20.60
2019-04-24T06:56:11.303Z,19.50
2019-04-24T07:04:40.920Z,23.20
2019-04-24T07:06:42.476Z,23.00
2019-04-24T07:09:44.076Z,23.50
2019-04-24T07:15:31.818Z,22.37
2019-04-24T07:18:09.472Z,21.33
2019-04-24T07:20:50.965Z,22.80
2019-04-24T07:34:23.313Z,23.70
2019-04-24T07:36:46.288Z,22.83
2019-04-24T07:39:45.943Z,23.00
2019-04-24T07:42:08.260Z,23.17
2019-04-24T07:44:37.433Z,22.30
2019-04-24T07:47:15.601Z,24.40
2019-04-24T07:49:46.770Z,26.23
2019-04-24T08:03:28.305Z,24.37
2019-04-24T08:06:01.255Z,23.40
2019-04-24T08:08:15.336Z,25.10
2019-04-24T08:10:50.794Z,25.17
2019-04-24T08:13:37.206Z,22.93
2019-04-24T08:19:06.525Z,22.80
2019-04-24T08:21:17.803Z,23.33
2019-04-24T08:23:52.792Z,23.47
2019-04-24T08:26:40.091Z,22.80
2019-04-24T08:29:37.287Z,24.60
2019-04-24T08:31:57.623Z,24.50
2019-04-24T08:37:10.606Z,23.77
2019-04-24T08:39:58.520Z,24.43
2019-04-24T08:45:32.101Z,23.67
2019-04-24T08:48:21.281Z,23.87
2019-04-24T08:51:06.882Z,23.17
2019-04-24T08:53:16.778Z,24.50
2019-04-24T09:01:13.177Z,24.03
2019-04-24T09:06:11.770Z,23.63
2019-04-24T09:12:08.027Z,26.97
2019-04-24T09:14:39.575Z,26.20
2019-04-24T09:20:01.997Z,26.90
2019-04-24T09:30:33.578Z,26.33
2019-04-24T09:33:16.883Z,24.97
2019-04-24T09:36:10.937Z,23.80
2019-04-24T09:38:30.443Z,25.53
2019-04-24T09:41:39.320Z,24.47
2019-04-24T09:43:56.931Z,24.77
2019-04-24T09:54:28.150Z,24.93
2019-04-24T09:57:09.604Z,25.07
2019-04-24T09:59:38.055Z,25.40
2019-04-24T10:02:33.388Z,26.60
2019-04-24T10:05:23.908Z,23.00
2019-04-24T10:08:21.398Z,23.77
2019-04-24T10:10:50.014Z,24.77
2019-04-24T10:13:28.326Z,25.90
2019-04-24T10:15:55.348Z,24.50
2019-04-24T10:21:12.610Z,27.03
2019-04-24T10:24:12.447Z,25.40
2019-04-24T10:32:30.920Z,23.50
2019-04-24T10:35:27.038Z,22.03
2019-04-24T10:41:01.838Z,23.53
2019-04-24T10:43:54.030Z,24.20
2019-04-24T10:46:53.876Z,24.43
2019-04-24T10:49:46.510Z,23.53
2019-04-24T10:52:05.107Z,24.63
2019-04-24T10:57:53.583Z,23.57
2019-04-24T11:00:20.885Z,24.43
2019-04-24T11:03:11.662Z,24.07
2019-04-24T11:09:03.759Z,25.63
2019-04-24T11:20:15.780Z,22.80
2019-04-24T11:23:05.569Z,24.07
2019-04-24T11:26:08.503Z,24.17
2019-04-24T11:28:49.299Z,23.93
2019-04-24T11:31:26.577Z,24.63
2019-04-24T11:34:22.882Z,24.90
2019-04-24T11:36:56.470Z,22.77
2019-04-24T11:42:05.125Z,24.27
2019-04-24T11:44:44.077Z,24.13
2019-04-24T11:51:01.513Z,21.80
2019-04-24T12:01:34.067Z,21.50
2019-04-24T12:04:24.871Z,22.47
2019-04-24T12:09:43.884Z,22.10
2019-04-24T12:12:14.402Z,22.13
2019-04-24T12:15:01.106Z,21.33
2019-04-24T12:20:50.498Z,20.03
2019-04-24T12:23:17.575Z,20.60
2019-04-24T12:31:03.386Z,19.97
2019-04-24T12:36:13.171Z,22.30
2019-04-24T12:41:23.424Z,19.77
2019-04-24T12:44:30.110Z,19.00
2019-04-24T12:47:10.950Z,18.60
2019-04-24T12:49:45.614Z,19.63
2019-04-24T12:52:06.532Z,19.63
2019-04-24T12:54:54.174Z,19.37
2019-04-24T12:57:53.540Z,20.73
2019-04-24T13:00:53.557Z,19.93
2019-04-24T13:03:50.545Z,19.37
2019-04-24T13:09:04.698Z,18.83
2019-04-24T13:11:22.713Z,19.60
2019-04-24T13:14:19.566Z,17.93
2019-04-24T13:17:13.197Z,19.47
2019-04-24T13:21:50.950Z,18.70
2019-04-24T13:24:59.651Z,20.57
2019-04-24T13:28:28.734Z,18.70
2019-04-24T13:31:23.502Z,18.30
2019-04-24T13:36:46.643Z,20.30
2019-04-24T13:38:56.603Z,18.87
2019-04-24T13:41:45.751Z,17.00
2019-04-24T13:44:10.292Z,18.10
2019-04-24T13:46:45.404Z,17.13
2019-04-24T13:49:13.838Z,17.83
2019-04-24T13:54:25.159Z,17.17
2019-04-24T13:57:00.236Z,18.20
2019-04-24T13:59:35.661Z,18.43
2019-04-24T14:04:47.608Z,17.87
2019-04-24T14:07:26.084Z,18.57
2019-04-24T14:17:38.419Z,17.80
2019-04-24T14:23:07.873Z,19.67
2019-04-24T14:25:28.753Z,19.90
2019-04-24T14:28:12.812Z,19.87
2019-04-24T14:30:52.939Z,19.90
2019-04-24T14:33:19.895Z,20.37
2019-04-24T14:35:52.272Z,21.17
2019-04-24T14:38:24.822Z,22.30
2019-04-24T14:41:08.014Z,18.87
2019-04-24T14:43:43.862Z,21.17
2019-04-24T14:49:03.449Z,18.67
2019-04-24T14:53:54.507Z,18.80
2019-04-24T14:56:25.821Z,18.97
2019-04-24T14:59:02.770Z,17.93
2019-04-24T15:01:30.917Z,17.27
2019-04-24T15:04:03.609Z,18.33
2019-04-24T15:09:14.710Z,17.77
2019-04-24T15:11:57.836Z,18.67
2019-04-24T15:17:21.956Z,17.53
2019-04-24T15:22:31.672Z,18.40
2019-04-24T15:27:36.869Z,20.07
2019-04-24T15:30:12.825Z,20.53
2019-04-24T15:32:43.161Z,18.87
2019-04-24T15:37:55.673Z,19.53
2019-04-24T15:43:17.793Z,18.27
2019-04-24T15:45:32.314Z,19.87
2019-04-24T15:48:17.157Z,20.07
2019-04-24T15:50:51.495Z,18.33
2019-04-24T15:52:41.042Z,18.13
2019-04-24T15:55:20.509Z,16.77
2019-04-24T15:57:53.780Z,17.80
2019-04-24T16:01:06.228Z,18.93
2019-04-24T16:03:31.848Z,17.53
2019-04-24T16:05:52.305Z,17.90
2019-04-24T16:08:24.934Z,17.47
2019-04-24T16:11:00.083Z,16.47
2019-04-24T16:13:38.617Z,17.60
2019-04-24T16:16:33.365Z,17.40
2019-04-24T16:21:37.929Z,15.17
2019-04-24T16:24:38.260Z,17.00
2019-04-24T16:29:20.648Z,17.80
2019-04-24T16:34:32.025Z,17.17
2019-04-24T16:37:11.702Z,19.00
2019-04-24T16:39:51.022Z,17.90
2019-04-24T16:53:05.579Z,18.37
2019-04-24T16:55:30.010Z,17.20
2019-04-24T17:01:10.295Z,17.97
2019-04-24T17:06:06.918Z,18.67
2019-04-24T17:08:25.736Z,16.90
2019-04-24T17:11:06.399Z,19.10
2019-04-24T17:13:26.872Z,17.53
2019-04-24T17:16:10.352Z,19.00
2019-04-24T17:18:40.643Z,18.93
2019-04-24T17:21:32.663Z,20.70
2019-04-24T17:23:41.679Z,20.37
2019-04-24T17:26:15.770Z,19.70
2019-04-24T17:28:58.287Z,21.03
2019-04-24T17:31:24.739Z,23.03
2019-04-24T17:34:04.641Z,21.40
2019-04-24T17:36:22.096Z,20.50
2019-04-24T17:38:40.118Z,21.27
2019-04-24T17:41:17.999Z,21.17
2019-04-24T17:44:29.542Z,20.50
2019-04-24T17:46:57.421Z,20.23
2019-04-24T17:49:23.389Z,20.03
2019-04-24T17:51:47.856Z,22.13
2019-04-24T17:54:22.539Z,21.10
2019-04-24T17:59:08.267Z,21.40
2019-04-24T18:01:41.487Z,21.57
2019-04-24T18:04:13.906Z,22.43
2019-04-24T18:06:47.074Z,20.00
2019-04-24T18:09:19.470Z,19.43
2019-04-24T18:11:52.337Z,21.63
2019-04-24T18:14:24.975Z,22.10
2019-04-24T18:17:01.167Z,23.00
2019-04-24T18:19:33.142Z,20.40
2019-04-24T18:22:04.958Z,24.27
2019-04-24T18:24:54.861Z,21.53
2019-04-24T18:27:31.357Z,23.57
2019-04-24T18:30:03.990Z,22.93
2019-04-24T18:32:35.735Z,23.33
2019-04-24T18:35:09.661Z,23.10
2019-04-24T18:37:42.931Z,22.93
2019-04-24T18:40:16.136Z,22.70
2019-04-24T18:42:48.732Z,22.10
2019-04-24T18:45:21.516Z,22.27
2019-04-24T18:47:54.601Z,23.03
2019-04-24T18:50:26.940Z,22.93
2019-04-24T18:52:59.200Z,26.53
2019-04-24T18:55:31.218Z,23.43
2019-04-24T18:58:03.432Z,22.90
2019-04-24T19:00:35.476Z,22.77
2019-04-24T19:03:07.919Z,21.00
2019-04-24T19:05:41.464Z,22.33
2019-04-24T19:08:15.705Z,22.40
2019-04-24T19:10:47.813Z,23.03
2019-04-24T19:13:19.484Z,22.13
2019-04-24T19:15:51.341Z,20.17
2019-04-24T19:18:24.216Z,22.20
2019-04-24T19:20:56.534Z,21.83
2019-04-24T19:23:28.188Z,22.53
2019-04-24T19:26:01.165Z,21.63
2019-04-24T19:28:33.992Z,22.03
2019-04-24T19:31:06.390Z,22.43
2019-04-24T19:33:38.149Z,22.93
2019-04-24T19:36:12.357Z,21.70
2019-04-24T19:38:44.071Z,22.03
2019-04-24T19:41:17.515Z,23.43
2019-04-24T19:43:51.116Z,24.33
2019-04-24T19:46:23.746Z,22.20
2019-04-24T19:48:55.829Z,21.73
2019-04-24T19:51:27.702Z,23.20
2019-04-24T19:53:59.793Z,22.77
2019-04-24T19:56:31.369Z,22.07
2019-04-24T19:59:03.319Z,22.47
2019-04-24T20:01:34.861Z,22.10
2019-04-24T20:04:06.666Z,23.27
2019-04-24T20:06:39.091Z,21.87
2019-04-24T20:09:26.827Z,23.10
2019-04-24T20:11:59.499Z,21.07
2019-04-24T20:14:31.632Z,23.90
2019-04-24T20:17:02.959Z,22.57
2019-04-24T20:19:34.870Z,22.10
2019-04-24T20:22:06.753Z,22.53
2019-04-24T20:24:38.278Z,22.10
2019-04-24T20:27:09.517Z,24.50
2019-04-24T20:29:41.117Z,22.23
2019-04-24T20:32:16.805Z,21.93
2019-04-24T20:34:48.563Z,24.23
2019-04-24T20:37:20.593Z,22.07
2019-04-24T20:39:52.211Z,23.70
2019-04-24T20:42:24.116Z,22.10
2019-04-24T20:44:55.865Z,22.77
2019-04-24T20:47:28.310Z,23.13
2019-04-24T20:49:59.732Z,24.63
2019-04-24T20:52:31.285Z,26.07
2019-04-24T20:55:02.814Z,25.70
2019-04-24T20:57:34.431Z,29.83
2019-04-24T21:00:06.330Z,24.40
2019-04-24T21:02:40.110Z,22.80
2019-04-24T21:05:13.342Z,26.20
2019-04-24T21:08:04.850Z,24.40
2019-04-24T21:10:38.311Z,24.33
2019-04-24T21:13:09.564Z,24.92
2019-04-24T21:15:42.695Z,24.53
2019-04-24T21:18:14.610Z,24.43
2019-04-24T21:20:46.666Z,22.40
2019-04-24T21:23:19.478Z,23.73
2019-04-24T21:25:52.250Z,22.67
2019-04-24T21:28:25.516Z,25.80
2019-04-24T21:31:07.671Z,24.33
2019-04-24T21:33:39.671Z,23.40
2019-04-24T21:36:12.277Z,25.77
2019-04-24T21:38:44.762Z,21.47
2019-04-24T21:41:16.752Z,24.27
2019-04-24T21:43:51.996Z,24.40
2019-04-24T21:46:23.923Z,23.10
2019-04-24T21:48:56.018Z,22.77
2019-04-24T21:51:27.676Z,24.83
2019-04-24T21:54:04.697Z,25.40
2019-04-24T21:56:34.030Z,26.23
2019-04-24T21:59:06.123Z,24.67
2019-04-24T22:02:20.375Z,25.57
2019-04-24T22:05:12.080Z,23.90
2019-04-24T22:07:47.270Z,24.33
2019-04-24T22:10:22.636Z,25.87
2019-04-24T22:12:54.398Z,23.90
2019-04-24T22:15:26.796Z,26.03
2019-04-24T22:17:58.497Z,24.37
2019-04-24T22:20:41.865Z,24.50
2019-04-24T22:23:30.167Z,23.87
2019-04-24T22:26:02.841Z,26.17
2019-04-24T22:28:34.437Z,24.10
2019-04-24T22:31:24.853Z,25.27
2019-04-24T22:34:15.205Z,26.10
2019-04-24T22:36:46.914Z,25.50
2019-04-24T22:39:44.282Z,28.83
2019-04-24T22:42:15.882Z,25.93
2019-04-24T22:44:48.102Z,25.13
2019-04-24T22:47:23.551Z,26.40
2019-04-24T22:49:55.899Z,23.00
2019-04-24T22:52:29.110Z,25.97
2019-04-24T22:55:02.058Z,26.03
2019-04-24T22:57:34.828Z,25.93
2019-04-24T23:00:09.891Z,25.03
2019-04-24T23:02:42.497Z,25.93
2019-04-24T23:05:15.280Z,26.40
2019-04-24T23:07:46.936Z,25.63
2019-04-24T23:10:18.498Z,26.03
2019-04-24T23:12:49.644Z,25.17
2019-04-24T23:15:21.550Z,25.50
2019-04-24T23:17:53.480Z,27.43
2019-04-24T23:20:34.115Z,23.80
2019-04-24T23:23:25.616Z,25.73
2019-04-24T23:26:16.672Z,24.30
2019-04-24T23:28:58.947Z,24.53
2019-04-24T23:32:01.463Z,25.60
2019-04-24T23:34:35.253Z,25.70
2019-04-24T23:37:06.430Z,25.00
2019-04-24T23:39:37.968Z,26.67
2019-04-24T23:42:10.111Z,25.43
2019-04-24T23:44:42.459Z,25.03
2019-04-24T23:47:15.572Z,25.67
2019-04-24T23:49:47.073Z,26.10
2019-04-24T23:52:19.007Z,25.87
2019-04-24T23:55:03.887Z,27.60
2019-04-24T23:57:26.230Z,26.93
2019-04-24T23:59:58.807Z,25.47
